createdAt,value
2017-09-27T00:01:55.496Z,1019.19
2017-09-27T00:03:57.011Z,1019.21
2017-09-27T00:05:58.622Z,1019.19
2017-09-27T00:08:00.228Z,1019.17
2017-09-27T00:10:01.888Z,1019.14
2017-09-27T00:12:03.417Z,1019.18
2017-09-27T00:14:04.877Z,1019.17
2017-09-27T00:16:06.562Z,1019.13
2017-09-27T00:18:08.369Z,1019.11
2017-09-27T00:20:10.002Z,1019.10
2017-09-27T00:22:11.491Z,1019.13
2017-09-27T00:24:13.009Z,1019.14
2017-09-27T00:26:14.496Z,1019.14
2017-09-27T00:28:16.124Z,1019.11
2017-09-27T00:30:17.688Z,1019.12
2017-09-27T00:32:19.160Z,1019.07
2017-09-27T00:34:20.667Z,1019.07
2017-09-27T00:36:22.197Z,1019.09
2017-09-27T00:38:23.696Z,1019.03
2017-09-27T00:40:25.176Z,1019.01
2017-09-27T00:42:26.669Z,1019.01
2017-09-27T00:44:28.193Z,1018.99
2017-09-27T00:46:29.739Z,1019.01
2017-09-27T00:48:31.238Z,1018.98
2017-09-27T00:50:32.773Z,1018.93
2017-09-27T00:52:34.342Z,1018.93
2017-09-27T00:54:35.916Z,1018.93
2017-09-27T00:57:18.394Z,1018.93
2017-09-27T00:59:19.809Z,1018.90
2017-09-27T01:01:21.463Z,1018.95
2017-09-27T01:03:22.913Z,1018.91
2017-09-27T01:05:24.324Z,1018.86
2017-09-27T01:07:25.767Z,1018.85
2017-09-27T01:09:27.186Z,1018.84
2017-09-27T01:11:28.597Z,1018.87
2017-09-27T01:13:30.009Z,1018.84
2017-09-27T01:15:31.520Z,1018.87
2017-09-27T01:17:32.945Z,1018.84
2017-09-27T01:19:34.447Z,1018.78
2017-09-27T01:21:35.883Z,1018.83
2017-09-27T01:23:37.372Z,1018.82
2017-09-27T01:25:38.889Z,1018.82
2017-09-27T01:27:40.371Z,1018.81
2017-09-27T01:29:41.874Z,1018.82
2017-09-27T01:31:43.367Z,1018.84
2017-09-27T01:33:44.875Z,1018.81
2017-09-27T01:35:46.509Z,1018.84
2017-09-27T01:37:47.985Z,1018.81
2017-09-27T01:39:49.481Z,1018.78
2017-09-27T01:41:50.969Z,1018.78
2017-09-27T01:43:52.474Z,1018.72
2017-09-27T01:45:53.967Z,1018.73
2017-09-27T01:47:55.457Z,1018.72
2017-09-27T01:49:56.911Z,1018.69
2017-09-27T01:51:58.524Z,1018.70
2017-09-27T01:53:59.973Z,1018.64
2017-09-27T01:56:01.620Z,1018.65
2017-09-27T01:58:03.198Z,1018.64
2017-09-27T02:00:04.796Z,1018.64
2017-09-27T02:02:06.315Z,1018.67
2017-09-27T02:04:07.802Z,1018.73
2017-09-27T02:06:09.329Z,1018.70
2017-09-27T02:08:10.812Z,1018.67
2017-09-27T02:10:12.490Z,1018.65
2017-09-27T02:12:13.891Z,1018.63
2017-09-27T02:14:15.478Z,1018.66
2017-09-27T02:16:16.994Z,1018.69
2017-09-27T02:18:18.484Z,1018.65
2017-09-27T02:20:19.971Z,1018.69
2017-09-27T02:22:21.579Z,1018.68
2017-09-27T02:24:23.092Z,1018.65
2017-09-27T02:26:24.659Z,1018.69
2017-09-27T02:28:26.145Z,1018.69
2017-09-27T02:31:08.568Z,1018.70
2017-09-27T02:33:09.974Z,1018.72
2017-09-27T02:35:11.400Z,1018.68
2017-09-27T02:37:12.828Z,1018.71
2017-09-27T02:39:14.231Z,1018.67
2017-09-27T02:41:15.646Z,1018.65
2017-09-27T02:43:17.064Z,1018.66
2017-09-27T02:45:19.064Z,1018.68
2017-09-27T02:47:20.467Z,1018.67
2017-09-27T02:49:22.327Z,1018.69
2017-09-27T02:51:23.831Z,1018.69
2017-09-27T02:53:25.381Z,1018.66
2017-09-27T02:55:26.816Z,1018.67
2017-09-27T02:57:28.231Z,1018.68
2017-09-27T02:59:29.683Z,1018.73
2017-09-27T03:01:31.112Z,1018.74
2017-09-27T03:03:32.516Z,1018.74
2017-09-27T03:05:33.962Z,1018.80
2017-09-27T03:07:35.378Z,1018.80
2017-09-27T03:09:36.791Z,1018.82
2017-09-27T03:11:38.241Z,1018.81
2017-09-27T03:13:39.891Z,1018.81
2017-09-27T03:15:41.339Z,1018.83
2017-09-27T03:17:42.806Z,1018.82
2017-09-27T03:19:44.278Z,1018.81
2017-09-27T03:21:45.848Z,1018.82
2017-09-27T03:23:47.313Z,1018.87
2017-09-27T03:25:48.805Z,1018.85
2017-09-27T03:27:50.409Z,1018.87
2017-09-27T03:29:52.065Z,1018.87
2017-09-27T03:31:53.802Z,1018.84
2017-09-27T03:33:55.309Z,1018.87
2017-09-27T03:35:56.885Z,1018.90
2017-09-27T03:37:58.383Z,1018.91
2017-09-27T03:40:00.064Z,1018.90
2017-09-27T03:42:01.665Z,1018.89
2017-09-27T03:44:03.289Z,1018.90
2017-09-27T03:46:04.971Z,1018.87
2017-09-27T03:48:06.775Z,1018.83
2017-09-27T03:50:08.405Z,1018.81
2017-09-27T03:52:09.840Z,1018.81
2017-09-27T03:54:11.328Z,1018.82
2017-09-27T03:56:12.907Z,1018.78
2017-09-27T03:58:14.432Z,1018.78
2017-09-27T04:00:16.013Z,1018.79
2017-09-27T04:02:17.650Z,1018.81
2017-09-27T04:04:19.159Z,1018.80
2017-09-27T04:06:20.678Z,1018.84
2017-09-27T04:08:22.176Z,1018.86
2017-09-27T04:10:23.686Z,1018.86
2017-09-27T04:12:25.302Z,1018.85
2017-09-27T04:14:26.788Z,1018.82
2017-09-27T04:16:28.335Z,1018.84
2017-09-27T04:18:29.923Z,1018.83
2017-09-27T04:20:31.421Z,1018.82
2017-09-27T04:22:32.968Z,1018.86
2017-09-27T04:24:34.427Z,1018.89
2017-09-27T04:26:35.960Z,1018.85
2017-09-27T04:28:37.460Z,1018.86
2017-09-27T04:30:38.946Z,1018.85
2017-09-27T04:32:40.541Z,1018.84
2017-09-27T04:34:42.061Z,1018.82
2017-09-27T04:36:43.559Z,1018.84
2017-09-27T04:38:45.070Z,1018.84
2017-09-27T04:40:46.635Z,1018.81
2017-09-27T04:42:48.171Z,1018.80
2017-09-27T04:44:49.731Z,1018.83
2017-09-27T04:46:51.198Z,1018.84
2017-09-27T04:48:52.718Z,1018.82
2017-09-27T04:50:54.391Z,1018.78
2017-09-27T04:52:55.856Z,1018.77
2017-09-27T04:54:57.387Z,1018.83
2017-09-27T04:56:58.987Z,1018.85
2017-09-27T04:59:00.475Z,1018.87
2017-09-27T05:01:02.238Z,1018.85
2017-09-27T05:03:03.772Z,1018.84
2017-09-27T05:05:05.505Z,1018.84
2017-09-27T05:07:07.061Z,1018.85
2017-09-27T05:09:08.591Z,1018.81
2017-09-27T05:11:10.415Z,1018.82
2017-09-27T05:13:11.934Z,1018.83
2017-09-27T05:15:13.409Z,1018.85
2017-09-27T05:17:14.907Z,1018.86
2017-09-27T05:19:16.498Z,1018.86
2017-09-27T05:21:18.039Z,1018.87
2017-09-27T05:23:19.567Z,1018.88
2017-09-27T05:25:21.111Z,1018.88
2017-09-27T05:27:22.584Z,1018.93
2017-09-27T05:29:24.087Z,1018.93
2017-09-27T05:31:25.595Z,1018.86
2017-09-27T05:33:27.143Z,1018.91
2017-09-27T05:35:28.775Z,1018.91
2017-09-27T05:37:30.386Z,1018.95
2017-09-27T05:39:31.897Z,1018.95
2017-09-27T05:41:33.407Z,1019.02
2017-09-27T05:43:34.948Z,1019.00
2017-09-27T05:45:36.808Z,1018.98
2017-09-27T05:47:38.589Z,1018.96
2017-09-27T05:49:40.375Z,1018.95
2017-09-27T05:51:41.907Z,1019.02
2017-09-27T05:53:43.522Z,1019.01
2017-09-27T05:55:45.017Z,1019.05
2017-09-27T05:57:46.501Z,1019.02
2017-09-27T05:59:48.053Z,1019.07
2017-09-27T06:01:49.562Z,1019.07
2017-09-27T06:03:51.101Z,1019.08
2017-09-27T06:05:52.596Z,1019.08
2017-09-27T06:07:54.109Z,1019.09
2017-09-27T06:09:55.863Z,1019.10
2017-09-27T06:11:57.365Z,1019.12
2017-09-27T06:13:58.906Z,1019.12
2017-09-27T06:16:00.414Z,1019.12
2017-09-27T06:18:01.955Z,1019.13
2017-09-27T06:20:03.437Z,1019.12
2017-09-27T06:22:04.963Z,1019.15
2017-09-27T06:24:06.503Z,1019.19
2017-09-27T06:26:08.002Z,1019.18
2017-09-27T06:28:09.544Z,1019.18
2017-09-27T06:30:11.036Z,1019.24
2017-09-27T06:32:12.582Z,1019.27
2017-09-27T06:34:14.089Z,1019.28
2017-09-27T06:36:15.631Z,1019.31
2017-09-27T06:38:17.219Z,1019.26
2017-09-27T06:40:18.715Z,1019.26
2017-09-27T06:42:20.233Z,1019.26
2017-09-27T06:45:01.650Z,1019.24
2017-09-27T06:47:03.587Z,1019.24
2017-09-27T06:49:04.992Z,1019.24
2017-09-27T06:51:06.421Z,1019.20
2017-09-27T06:53:07.851Z,1019.24
2017-09-27T06:55:09.285Z,1019.30
2017-09-27T06:57:10.745Z,1019.25
2017-09-27T06:59:12.183Z,1019.25
2017-09-27T07:01:13.600Z,1019.28
2017-09-27T07:03:15.020Z,1019.28
2017-09-27T07:05:16.465Z,1019.28
2017-09-27T07:07:17.924Z,1019.29
2017-09-27T07:09:19.327Z,1019.30
2017-09-27T07:11:20.747Z,1019.29
2017-09-27T07:13:22.164Z,1019.33
2017-09-27T07:15:23.677Z,1019.32
2017-09-27T07:17:25.184Z,1019.33
2017-09-27T07:19:26.609Z,1019.31
2017-09-27T07:21:28.130Z,1019.33
2017-09-27T07:23:29.727Z,1019.38
2017-09-27T07:25:31.354Z,1019.38
2017-09-27T07:27:32.863Z,1019.35
2017-09-27T07:29:34.394Z,1019.35
2017-09-27T07:31:35.914Z,1019.42
2017-09-27T07:33:37.421Z,1019.42
2017-09-27T07:35:38.951Z,1019.41
2017-09-27T07:37:40.487Z,1019.42
2017-09-27T07:39:41.916Z,1019.42
2017-09-27T07:41:43.373Z,1019.46
2017-09-27T07:43:44.823Z,1019.44
2017-09-27T07:45:46.369Z,1019.45
2017-09-27T07:47:48.173Z,1019.44
2017-09-27T07:49:49.612Z,1019.46
2017-09-27T07:51:51.317Z,1019.46
2017-09-27T07:53:52.841Z,1019.48
2017-09-27T07:55:54.361Z,1019.46
2017-09-27T07:57:55.922Z,1019.43
2017-09-27T07:59:57.680Z,1019.47
2017-09-27T08:01:59.204Z,1019.47
2017-09-27T08:04:00.758Z,1019.53
2017-09-27T08:06:02.377Z,1019.52
2017-09-27T08:08:03.927Z,1019.57
2017-09-27T08:10:05.361Z,1019.57
2017-09-27T08:12:06.785Z,1019.62
2017-09-27T08:14:08.329Z,1019.60
2017-09-27T08:16:09.772Z,1019.63
2017-09-27T08:18:11.237Z,1019.64
2017-09-27T08:20:12.707Z,1019.64
2017-09-27T08:22:14.500Z,1019.60
2017-09-27T08:24:16.929Z,1019.67
2017-09-27T08:26:18.452Z,1019.69
2017-09-27T08:28:19.990Z,1019.70
2017-09-27T08:30:21.472Z,1019.71
2017-09-27T08:32:23.024Z,1019.71
2017-09-27T08:34:24.546Z,1019.69
2017-09-27T08:36:26.014Z,1019.71
2017-09-27T08:38:27.539Z,1019.68
2017-09-27T08:40:29.206Z,1019.70
2017-09-27T08:42:30.790Z,1019.71
2017-09-27T08:44:32.326Z,1019.76
2017-09-27T08:46:33.776Z,1019.74
2017-09-27T08:48:35.297Z,1019.74
2017-09-27T08:50:36.926Z,1019.79
2017-09-27T08:52:38.463Z,1019.74
2017-09-27T08:54:40.034Z,1019.74
2017-09-27T08:56:41.834Z,1019.77
2017-09-27T08:58:43.377Z,1019.77
2017-09-27T09:00:44.868Z,1019.73
2017-09-27T09:02:46.441Z,1019.73
2017-09-27T09:04:47.982Z,1019.72
2017-09-27T09:06:49.649Z,1019.68
2017-09-27T09:08:51.143Z,1019.71
2017-09-27T09:10:52.721Z,1019.68
2017-09-27T09:12:54.231Z,1019.67
2017-09-27T09:14:55.829Z,1019.72
2017-09-27T09:16:57.417Z,1019.68
2017-09-27T09:18:58.923Z,1019.68
2017-09-27T09:21:00.477Z,1019.74
2017-09-27T09:23:02.052Z,1019.70
2017-09-27T09:25:03.550Z,1019.71
2017-09-27T09:27:05.184Z,1019.67
2017-09-27T09:29:06.820Z,1019.68
2017-09-27T09:31:08.424Z,1019.63
2017-09-27T09:33:09.956Z,1019.66
2017-09-27T09:35:11.458Z,1019.67
2017-09-27T09:37:12.939Z,1019.67
2017-09-27T09:39:14.518Z,1019.62
2017-09-27T09:41:16.044Z,1019.62
2017-09-27T09:43:17.535Z,1019.61
2017-09-27T09:45:18.967Z,1019.59
2017-09-27T09:47:20.469Z,1019.59
2017-09-27T09:49:22.052Z,1019.61
2017-09-27T09:51:23.581Z,1019.64
2017-09-27T09:53:25.059Z,1019.63
2017-09-27T09:55:26.555Z,1019.61
2017-09-27T09:57:28.057Z,1019.57
2017-09-27T09:59:29.548Z,1019.60
2017-09-27T10:01:31.067Z,1019.55
2017-09-27T10:03:32.735Z,1019.54
2017-09-27T10:05:34.223Z,1019.53
2017-09-27T10:07:35.826Z,1019.52
2017-09-27T10:09:37.324Z,1019.54
2017-09-27T10:11:38.818Z,1019.47
2017-09-27T10:13:40.354Z,1019.50
2017-09-27T10:15:41.815Z,1019.44
2017-09-27T10:17:43.305Z,1019.42
2017-09-27T10:19:44.826Z,1019.42
2017-09-27T10:21:46.275Z,1019.43
2017-09-27T10:23:47.807Z,1019.47
2017-09-27T10:25:49.337Z,1019.46
2017-09-27T10:27:50.809Z,1019.45
2017-09-27T10:29:52.240Z,1019.45
2017-09-27T10:31:53.661Z,1019.47
2017-09-27T10:33:55.091Z,1019.48
2017-09-27T10:35:56.520Z,1019.44
2017-09-27T10:37:57.945Z,1019.45
2017-09-27T10:39:59.377Z,1019.42
2017-09-27T10:42:00.808Z,1019.42
2017-09-27T10:44:02.253Z,1019.40
2017-09-27T10:46:03.691Z,1019.39
2017-09-27T10:48:05.201Z,1019.37
2017-09-27T10:50:06.722Z,1019.37
2017-09-27T10:52:08.285Z,1019.37
2017-09-27T10:54:09.825Z,1019.38
2017-09-27T10:56:11.337Z,1019.35
2017-09-27T10:58:12.834Z,1019.33
2017-09-27T11:00:14.268Z,1019.34
2017-09-27T11:02:15.725Z,1019.34
2017-09-27T11:04:17.219Z,1019.34
2017-09-27T11:06:18.755Z,1019.30
2017-09-27T11:08:20.279Z,1019.31
2017-09-27T11:10:21.761Z,1019.29
2017-09-27T11:13:04.204Z,1019.30
2017-09-27T11:15:05.798Z,1019.30
2017-09-27T11:17:07.374Z,1019.24
2017-09-27T11:19:08.797Z,1019.24
2017-09-27T11:21:10.229Z,1019.21
2017-09-27T11:23:11.654Z,1019.19
2017-09-27T11:25:13.084Z,1019.20
2017-09-27T11:27:14.514Z,1019.18
2017-09-27T11:29:15.955Z,1019.14
2017-09-27T11:31:17.383Z,1019.07
2017-09-27T11:33:18.911Z,1019.06
2017-09-27T11:35:20.411Z,1019.03
2017-09-27T11:37:21.938Z,1019.04
2017-09-27T11:39:23.479Z,1018.99
2017-09-27T11:41:24.976Z,1019.00
2017-09-27T11:43:26.475Z,1018.99
2017-09-27T11:45:27.948Z,1018.95
2017-09-27T11:47:29.403Z,1018.91
2017-09-27T11:49:30.843Z,1018.92
2017-09-27T11:51:32.278Z,1018.97
2017-09-27T11:53:33.700Z,1018.93
2017-09-27T11:55:35.136Z,1018.91
2017-09-27T11:57:36.573Z,1018.91
2017-09-27T11:59:38.016Z,1018.91
2017-09-27T12:01:39.512Z,1018.86
2017-09-27T12:03:41.019Z,1018.88
2017-09-27T12:05:42.489Z,1018.84
2017-09-27T12:07:44.022Z,1018.86
2017-09-27T12:09:45.821Z,1018.82
2017-09-27T12:11:47.573Z,1018.77
2017-09-27T12:13:49.025Z,1018.75
2017-09-27T12:15:50.520Z,1018.72
2017-09-27T12:17:52.023Z,1018.76
2017-09-27T12:19:53.504Z,1018.71
2017-09-27T12:21:54.947Z,1018.69
2017-09-27T12:23:56.379Z,1018.69
2017-09-27T12:25:57.909Z,1018.68
2017-09-27T12:27:59.375Z,1018.63
2017-09-27T12:30:00.826Z,1018.64
2017-09-27T12:32:02.308Z,1018.62
2017-09-27T12:34:03.785Z,1018.62
2017-09-27T12:36:05.231Z,1018.58
2017-09-27T12:38:06.657Z,1018.57
2017-09-27T12:40:08.084Z,1018.57
2017-09-27T12:42:09.536Z,1018.60
2017-09-27T12:44:10.967Z,1018.56
2017-09-27T12:46:12.434Z,1018.55
2017-09-27T12:48:13.846Z,1018.57
2017-09-27T12:50:15.320Z,1018.55
2017-09-27T12:52:16.754Z,1018.54
2017-09-27T12:54:18.245Z,1018.53
2017-09-27T12:56:19.752Z,1018.54
2017-09-27T12:58:21.226Z,1018.48
2017-09-27T13:00:22.735Z,1018.45
2017-09-27T13:02:24.228Z,1018.45
2017-09-27T13:04:25.778Z,1018.42
2017-09-27T13:06:27.341Z,1018.42
2017-09-27T13:08:28.843Z,1018.38
2017-09-27T13:10:30.333Z,1018.39
2017-09-27T13:12:31.806Z,1018.40
2017-09-27T13:14:33.292Z,1018.36
2017-09-27T13:16:34.725Z,1018.34
2017-09-27T13:18:36.202Z,1018.36
2017-09-27T13:20:37.630Z,1018.32
2017-09-27T13:22:39.186Z,1018.29
2017-09-27T13:24:40.629Z,1018.30
2017-09-27T13:26:42.146Z,1018.30
2017-09-27T13:28:43.658Z,1018.30
2017-09-27T13:30:45.186Z,1018.30
2017-09-27T13:32:46.780Z,1018.28
2017-09-27T13:34:48.253Z,1018.25
2017-09-27T13:36:49.882Z,1018.23
2017-09-27T13:38:51.392Z,1018.29
2017-09-27T13:40:52.948Z,1018.29
2017-09-27T13:42:54.479Z,1018.30
2017-09-27T13:44:56.017Z,1018.29
2017-09-27T13:46:57.566Z,1018.25
2017-09-27T13:48:59.030Z,1018.31
2017-09-27T13:51:00.569Z,1018.29
2017-09-27T13:53:02.073Z,1018.30
2017-09-27T13:55:03.554Z,1018.31
2017-09-27T13:57:05.008Z,1018.32
2017-09-27T13:59:06.557Z,1018.28
2017-09-27T14:01:08.229Z,1018.27
2017-09-27T14:03:09.728Z,1018.24
2017-09-27T14:05:11.218Z,1018.19
2017-09-27T14:07:12.807Z,1018.17
2017-09-27T14:09:14.330Z,1018.12
2017-09-27T14:11:15.829Z,1018.15
2017-09-27T14:13:17.306Z,1018.14
2017-09-27T14:15:18.798Z,1018.08
2017-09-27T14:17:20.281Z,1018.07
2017-09-27T14:19:21.822Z,1018.10
2017-09-27T14:21:23.323Z,1018.09
2017-09-27T14:23:24.850Z,1018.10
2017-09-27T14:25:26.365Z,1018.06
2017-09-27T14:27:27.859Z,1018.05
2017-09-27T14:29:29.400Z,1018.02
2017-09-27T14:31:30.869Z,1017.98
2017-09-27T14:33:32.374Z,1017.99
2017-09-27T14:35:33.897Z,1018.03
2017-09-27T14:37:35.439Z,1017.98
2017-09-27T14:39:36.930Z,1017.95
2017-09-27T14:41:38.493Z,1017.98
2017-09-27T14:43:39.950Z,1017.94
2017-09-27T14:45:41.451Z,1017.99
2017-09-27T14:47:42.892Z,1017.96
2017-09-27T14:49:44.320Z,1017.98
2017-09-27T14:51:45.750Z,1017.93
2017-09-27T14:53:47.189Z,1017.94
2017-09-27T14:55:48.631Z,1017.94
2017-09-27T14:57:50.081Z,1017.95
2017-09-27T14:59:51.557Z,1017.97
2017-09-27T15:01:52.998Z,1017.97
2017-09-27T15:03:54.455Z,1018.00
2017-09-27T15:05:55.889Z,1017.98
2017-09-27T15:07:57.393Z,1017.98
2017-09-27T15:10:39.809Z,1018.00
2017-09-27T15:12:41.238Z,1017.99
2017-09-27T15:14:42.666Z,1017.99
2017-09-27T15:16:44.292Z,1017.98
2017-09-27T15:18:45.732Z,1017.98
2017-09-27T15:20:47.157Z,1017.97
2017-09-27T15:22:48.576Z,1018.02
2017-09-27T15:24:50.008Z,1018.00
2017-09-27T15:26:51.434Z,1018.01
2017-09-27T15:28:52.864Z,1018.00
2017-09-27T15:30:54.283Z,1017.95
2017-09-27T15:32:55.719Z,1017.93
2017-09-27T15:34:57.151Z,1017.98
2017-09-27T15:36:58.578Z,1017.93
2017-09-27T15:39:00.009Z,1017.94
2017-09-27T15:41:01.588Z,1017.96
2017-09-27T15:43:03.025Z,1017.97
2017-09-27T15:45:04.446Z,1018.00
2017-09-27T15:47:05.875Z,1018.01
2017-09-27T15:49:07.304Z,1018.06
2017-09-27T15:51:08.737Z,1018.04
2017-09-27T15:53:10.165Z,1018.02
2017-09-27T15:55:11.595Z,1018.03
2017-09-27T15:57:54.025Z,1018.04
2017-09-27T15:59:55.454Z,1018.04
2017-09-27T16:01:56.883Z,1018.03
2017-09-27T16:03:58.309Z,1018.03
2017-09-27T16:05:59.743Z,1018.06
2017-09-27T16:08:01.170Z,1018.08
2017-09-27T16:10:02.595Z,1018.10
2017-09-27T16:12:04.035Z,1018.11
2017-09-27T16:14:05.463Z,1018.15
2017-09-27T16:16:06.898Z,1018.12
2017-09-27T16:18:08.329Z,1018.17
2017-09-27T16:20:09.756Z,1018.19
2017-09-27T16:22:11.182Z,1018.17
2017-09-27T16:24:12.606Z,1018.20
2017-09-27T16:26:14.037Z,1018.23
2017-09-27T16:28:15.457Z,1018.26
2017-09-27T16:30:16.888Z,1018.26
2017-09-27T16:32:18.317Z,1018.26
2017-09-27T16:34:19.771Z,1018.34
2017-09-27T16:36:21.195Z,1018.31
2017-09-27T16:38:22.781Z,1018.32
2017-09-27T16:40:24.298Z,1018.26
2017-09-27T16:42:25.825Z,1018.33
2017-09-27T16:45:08.254Z,1018.28
2017-09-27T16:47:09.682Z,1018.31
2017-09-27T16:49:11.108Z,1018.30
2017-09-27T16:51:12.542Z,1018.25
2017-09-27T16:53:14.095Z,1018.30
2017-09-27T16:55:15.512Z,1018.31
2017-09-27T16:57:17.156Z,1018.29
2017-09-27T16:59:18.566Z,1018.30
2017-09-27T17:01:19.995Z,1018.32
2017-09-27T17:03:21.419Z,1018.33
2017-09-27T17:05:22.867Z,1018.36
2017-09-27T17:07:24.302Z,1018.34
2017-09-27T17:09:25.796Z,1018.37
2017-09-27T17:11:27.306Z,1018.40
2017-09-27T17:13:28.784Z,1018.44
2017-09-27T17:15:30.315Z,1018.49
2017-09-27T17:17:31.800Z,1018.40
2017-09-27T17:19:33.275Z,1018.42
2017-09-27T17:21:34.721Z,1018.46
2017-09-27T17:23:36.141Z,1018.42
2017-09-27T17:25:37.569Z,1018.45
2017-09-27T17:27:39.016Z,1018.41
2017-09-27T17:29:40.447Z,1018.41
2017-09-27T17:31:41.884Z,1018.44
2017-09-27T17:33:43.346Z,1018.50
2017-09-27T17:35:44.780Z,1018.51
2017-09-27T17:37:46.239Z,1018.50
2017-09-27T17:39:47.748Z,1018.54
2017-09-27T17:41:49.272Z,1018.54
2017-09-27T17:43:50.830Z,1018.54
2017-09-27T17:45:52.369Z,1018.48
2017-09-27T17:48:35.046Z,1018.52
2017-09-27T17:50:36.405Z,1018.58
2017-09-27T17:52:38.008Z,1018.53
2017-09-27T17:54:39.388Z,1018.49
2017-09-27T17:56:40.828Z,1018.51
2017-09-27T17:58:42.367Z,1018.56
2017-09-27T18:00:43.924Z,1018.59
2017-09-27T18:02:45.628Z,1018.53
2017-09-27T18:04:47.066Z,1018.55
2017-09-27T18:06:48.578Z,1018.55
2017-09-27T18:08:50.096Z,1018.52
2017-09-27T18:10:51.594Z,1018.55
2017-09-27T18:12:53.221Z,1018.58
2017-09-27T18:14:54.731Z,1018.62
2017-09-27T18:16:56.260Z,1018.65
2017-09-27T18:18:57.673Z,1018.65
2017-09-27T18:21:40.094Z,1018.62
2017-09-27T18:23:41.513Z,1018.67
2017-09-27T18:25:42.943Z,1018.69
2017-09-27T18:27:44.359Z,1018.63
2017-09-27T18:29:45.784Z,1018.65
2017-09-27T18:31:47.206Z,1018.71
2017-09-27T18:33:48.621Z,1018.71
2017-09-27T18:35:50.239Z,1018.72
2017-09-27T18:37:51.654Z,1018.74
2017-09-27T18:39:53.099Z,1018.71
2017-09-27T18:41:54.546Z,1018.73
2017-09-27T18:43:56.107Z,1018.78
2017-09-27T18:45:57.559Z,1018.72
2017-09-27T18:47:59.115Z,1018.79
2017-09-27T18:50:00.511Z,1018.76
2017-09-27T18:52:42.910Z,1018.76
2017-09-27T18:54:44.635Z,1018.77
2017-09-27T18:56:46.068Z,1018.77
2017-09-27T18:58:47.495Z,1018.79
2017-09-27T19:00:49.067Z,1018.80
2017-09-27T19:02:50.502Z,1018.79
2017-09-27T19:04:51.934Z,1018.84
2017-09-27T19:07:34.345Z,1018.84
2017-09-27T19:09:35.762Z,1018.83
2017-09-27T19:11:37.185Z,1018.83
2017-09-27T19:13:38.605Z,1018.81
2017-09-27T19:15:40.027Z,1018.81
2017-09-27T19:17:41.466Z,1018.80
2017-09-27T19:19:42.873Z,1018.86
2017-09-27T19:21:44.295Z,1018.88
2017-09-27T19:23:45.734Z,1018.86
2017-09-27T19:25:47.534Z,1018.87
2017-09-27T19:27:48.945Z,1018.85
2017-09-27T19:29:50.398Z,1018.85
2017-09-27T19:31:51.817Z,1018.83
2017-09-27T19:33:53.238Z,1018.82
2017-09-27T19:35:54.658Z,1018.82
2017-09-27T19:37:56.114Z,1018.83
2017-09-27T19:39:57.550Z,1018.79
2017-09-27T19:41:59.003Z,1018.80
2017-09-27T19:44:00.474Z,1018.79
2017-09-27T19:46:02.024Z,1018.76
2017-09-27T19:48:03.475Z,1018.73
2017-09-27T19:50:04.889Z,1018.74
2017-09-27T19:52:06.308Z,1018.78
2017-09-27T19:54:07.774Z,1018.79
2017-09-27T19:56:09.196Z,1018.75
2017-09-27T19:58:10.619Z,1018.76
2017-09-27T20:00:12.071Z,1018.77
2017-09-27T20:02:13.481Z,1018.73
2017-09-27T20:04:14.965Z,1018.76
2017-09-27T20:06:16.379Z,1018.72
2017-09-27T20:08:17.817Z,1018.75
2017-09-27T20:10:19.301Z,1018.73
2017-09-27T20:12:20.756Z,1018.77
2017-09-27T20:14:22.402Z,1018.70
2017-09-27T20:16:23.910Z,1018.73
2017-09-27T20:18:25.567Z,1018.74
2017-09-27T20:20:27.100Z,1018.70
2017-09-27T20:22:28.577Z,1018.70
2017-09-27T20:24:30.416Z,1018.66
2017-09-27T20:26:31.908Z,1018.69
2017-09-27T20:28:33.430Z,1018.73
2017-09-27T20:30:34.959Z,1018.73
2017-09-27T20:32:36.468Z,1018.71
2017-09-27T20:34:38.018Z,1018.70
2017-09-27T20:36:39.554Z,1018.71
2017-09-27T20:38:41.050Z,1018.66
2017-09-27T20:40:42.571Z,1018.69
2017-09-27T20:42:44.097Z,1018.72
2017-09-27T20:44:45.493Z,1018.72
2017-09-27T20:46:46.921Z,1018.66
2017-09-27T20:48:48.415Z,1018.67
2017-09-27T20:50:49.955Z,1018.68
2017-09-27T20:52:51.692Z,1018.69
2017-09-27T20:54:53.213Z,1018.69
2017-09-27T20:56:54.702Z,1018.67
2017-09-27T20:59:37.416Z,1018.61
2017-09-27T21:01:38.813Z,1018.61
2017-09-27T21:03:40.233Z,1018.58
2017-09-27T21:05:41.650Z,1018.58
2017-09-27T21:07:43.280Z,1018.57
2017-09-27T21:09:44.686Z,1018.54
2017-09-27T21:11:46.215Z,1018.52
2017-09-27T21:13:47.672Z,1018.50
2017-09-27T21:15:49.094Z,1018.51
2017-09-27T21:17:50.521Z,1018.51
2017-09-27T21:19:51.969Z,1018.54
2017-09-27T21:21:53.514Z,1018.55
2017-09-27T21:23:55.040Z,1018.55
2017-09-27T21:25:56.633Z,1018.59
2017-09-27T21:27:58.137Z,1018.58
2017-09-27T21:29:59.551Z,1018.57
2017-09-27T21:32:00.990Z,1018.54
2017-09-27T21:34:02.413Z,1018.52
2017-09-27T21:36:03.944Z,1018.52
2017-09-27T21:38:05.444Z,1018.46
2017-09-27T21:40:06.881Z,1018.42
2017-09-27T21:42:08.369Z,1018.42
2017-09-27T21:44:09.840Z,1018.42
2017-09-27T21:46:52.266Z,1018.38
2017-09-27T21:48:53.688Z,1018.36
2017-09-27T21:50:55.103Z,1018.38
2017-09-27T21:52:56.519Z,1018.37
2017-09-27T21:54:58.046Z,1018.39
2017-09-27T21:56:59.724Z,1018.34
2017-09-27T21:59:01.131Z,1018.30
2017-09-27T22:01:43.620Z,1018.28
2017-09-27T22:03:45.101Z,1018.29
2017-09-27T22:05:46.503Z,1018.28
2017-09-27T22:07:47.918Z,1018.21
2017-09-27T22:09:49.348Z,1018.23
2017-09-27T22:11:50.752Z,1018.26
2017-09-27T22:13:52.168Z,1018.31
2017-09-27T22:15:53.613Z,1018.31
2017-09-27T22:17:55.017Z,1018.34
2017-09-27T22:19:56.549Z,1018.34
2017-09-27T22:21:58.294Z,1018.35
2017-09-27T22:23:59.711Z,1018.31
2017-09-27T22:26:01.136Z,1018.27
2017-09-27T22:28:02.581Z,1018.32
2017-09-27T22:30:04.011Z,1018.37
2017-09-27T22:32:05.425Z,1018.35
2017-09-27T22:34:06.853Z,1018.32
2017-09-27T22:36:08.335Z,1018.32
2017-09-27T22:38:09.780Z,1018.31
2017-09-27T22:40:11.564Z,1018.32
2017-09-27T22:42:13.055Z,1018.35
2017-09-27T22:44:14.517Z,1018.33
2017-09-27T22:46:16.017Z,1018.33
2017-09-27T22:48:17.516Z,1018.35
2017-09-27T22:50:19.030Z,1018.32
2017-09-27T22:52:20.643Z,1018.32
2017-09-27T22:54:22.180Z,1018.32
2017-09-27T22:56:23.661Z,1018.30
2017-09-27T22:58:25.176Z,1018.31
2017-09-27T23:00:26.670Z,1018.34
2017-09-27T23:02:28.112Z,1018.39
2017-09-27T23:04:29.529Z,1018.38
2017-09-27T23:06:31.122Z,1018.38
2017-09-27T23:08:32.652Z,1018.36
2017-09-27T23:10:34.157Z,1018.37
2017-09-27T23:12:35.663Z,1018.35
2017-09-27T23:14:37.151Z,1018.39
2017-09-27T23:16:38.655Z,1018.36
2017-09-27T23:18:40.158Z,1018.33
2017-09-27T23:21:22.561Z,1018.30
2017-09-27T23:23:23.982Z,1018.32
2017-09-27T23:25:25.398Z,1018.26
2017-09-27T23:27:26.881Z,1018.26
2017-09-27T23:29:28.293Z,1018.25
2017-09-27T23:31:29.728Z,1018.23
2017-09-27T23:33:31.164Z,1018.19
2017-09-27T23:35:32.601Z,1018.19
2017-09-27T23:37:34.049Z,1018.18
2017-09-27T23:39:35.509Z,1018.21
2017-09-27T23:41:37.014Z,1018.22
2017-09-27T23:43:38.496Z,1018.23
2017-09-27T23:45:40.005Z,1018.24
2017-09-27T23:47:41.476Z,1018.20
2017-09-27T23:49:43.014Z,1018.21
2017-09-27T23:51:44.587Z,1018.14
2017-09-27T23:53:45.976Z,1018.16
2017-09-27T23:55:47.491Z,1018.14
2017-09-27T23:57:48.990Z,1018.19
2017-09-27T23:59:50.552Z,1018.19
